createdAt,value
2023-04-15T00:00:37.496Z,100.00
2023-04-15T00:03:41.283Z,100.00
2023-04-15T00:06:51.469Z,100.00
2023-04-15T00:09:56.224Z,100.00
2023-04-15T00:12:58.812Z,100.00
2023-04-15T00:16:02.332Z,100.00
2023-04-15T00:19:05.010Z,100.00
2023-04-15T00:22:08.273Z,100.00
2023-04-15T00:25:11.590Z,100.00
2023-04-15T00:28:14.483Z,100.00
2023-04-15T00:31:18.363Z,100.00
2023-04-15T00:34:21.945Z,100.00
2023-04-15T00:37:24.482Z,100.00
2023-04-15T00:40:27.862Z,100.00
2023-04-15T00:43:30.516Z,100.00
2023-04-15T00:46:35.944Z,100.00
2023-04-15T00:49:38.435Z,100.00
2023-04-15T00:52:41.583Z,100.00
2023-04-15T00:55:44.133Z,100.00
2023-04-15T00:58:47.085Z,100.00
2023-04-15T01:01:49.888Z,100.00
2023-04-15T01:04:52.850Z,100.00
2023-04-15T01:07:55.394Z,100.00
2023-04-15T01:10:59.033Z,100.00
2023-04-15T01:14:02.536Z,100.00
2023-04-15T01:17:05.453Z,100.00
2023-04-15T01:20:12.305Z,100.00
2023-04-15T01:23:17.006Z,100.00
2023-04-15T01:26:19.917Z,100.00
2023-04-15T01:29:23.299Z,100.00
2023-04-15T01:32:27.172Z,100.00
2023-04-15T01:35:30.263Z,100.00
2023-04-15T01:38:33.412Z,100.00
2023-04-15T01:41:36.538Z,100.00
2023-04-15T01:44:39.176Z,100.00
2023-04-15T01:47:42.096Z,100.00
2023-04-15T01:50:46.498Z,100.00
2023-04-15T01:53:50.265Z,100.00
2023-04-15T01:56:52.980Z,100.00
2023-04-15T01:59:56.229Z,100.00
2023-04-15T02:02:59.552Z,100.00
2023-04-15T02:06:02.592Z,100.00
2023-04-15T02:09:05.213Z,100.00
2023-04-15T02:12:08.222Z,100.00
2023-04-15T02:15:11.274Z,100.00
2023-04-15T02:18:14.222Z,100.00
2023-04-15T02:21:20.350Z,100.00
2023-04-15T02:24:23.183Z,100.00
2023-04-15T02:27:26.220Z,100.00
2023-04-15T02:30:29.209Z,100.00
2023-04-15T02:33:32.415Z,100.00
2023-04-15T02:36:36.261Z,100.00
2023-04-15T02:39:41.042Z,100.00
2023-04-15T02:42:44.717Z,100.00
2023-04-15T02:45:48.719Z,100.00
2023-04-15T02:48:53.337Z,100.00
2023-04-15T02:51:58.252Z,100.00
2023-04-15T02:55:02.616Z,100.00
2023-04-15T02:58:05.853Z,100.00
2023-04-15T03:01:12.166Z,100.00
2023-04-15T03:04:15.876Z,100.00
2023-04-15T03:07:18.858Z,100.00
2023-04-15T03:10:22.338Z,100.00
2023-04-15T03:13:25.409Z,100.00
2023-04-15T03:16:29.007Z,100.00
2023-04-15T03:19:33.497Z,100.00
2023-04-15T03:22:36.626Z,100.00
2023-04-15T03:25:39.991Z,100.00
2023-04-15T03:28:42.854Z,100.00
2023-04-15T03:31:46.263Z,100.00
2023-04-15T03:34:48.859Z,100.00
2023-04-15T03:37:51.792Z,100.00
2023-04-15T03:40:54.326Z,100.00
2023-04-15T03:43:57.432Z,100.00
2023-04-15T03:47:00.071Z,100.00
2023-04-15T03:50:03.089Z,100.00
2023-04-15T03:53:06.035Z,100.00
2023-04-15T03:56:08.836Z,100.00
2023-04-15T03:59:11.559Z,100.00
2023-04-15T04:02:14.555Z,100.00
2023-04-15T04:05:17.563Z,100.00
2023-04-15T04:08:21.701Z,100.00
2023-04-15T04:11:24.723Z,100.00
2023-04-15T04:14:29.804Z,100.00
2023-04-15T04:17:32.962Z,100.00
2023-04-15T04:20:35.645Z,100.00
2023-04-15T04:23:38.660Z,100.00
2023-04-15T04:26:41.544Z,100.00
2023-04-15T04:29:44.524Z,100.00
2023-04-15T04:32:47.173Z,100.00
2023-04-15T04:35:50.079Z,100.00
2023-04-15T04:38:52.655Z,100.00
2023-04-15T04:41:56.084Z,100.00
2023-04-15T04:44:58.824Z,100.00
2023-04-15T04:48:01.809Z,100.00
2023-04-15T04:51:04.411Z,100.00
2023-04-15T04:54:07.655Z,100.00
2023-04-15T04:57:10.177Z,100.00
2023-04-15T05:00:14.134Z,100.00
2023-04-15T05:03:17.411Z,100.00
2023-04-15T05:06:20.601Z,100.00
2023-04-15T05:09:23.419Z,100.00
2023-04-15T05:12:26.680Z,100.00
2023-04-15T05:15:29.278Z,100.00
2023-04-15T05:18:32.381Z,100.00
2023-04-15T05:21:35.317Z,100.00
2023-04-15T05:24:38.957Z,100.00
2023-04-15T05:27:41.575Z,100.00
2023-04-15T05:30:44.453Z,100.00
2023-04-15T05:33:47.244Z,100.00
2023-04-15T05:36:50.491Z,100.00
2023-04-15T05:39:53.167Z,100.00
2023-04-15T05:42:56.223Z,100.00
2023-04-15T05:45:58.935Z,100.00
2023-04-15T05:49:02.030Z,100.00
2023-04-15T05:52:05.768Z,100.00
2023-04-15T05:55:08.966Z,100.00
2023-04-15T05:58:11.563Z,100.00
2023-04-15T06:01:14.598Z,100.00
2023-04-15T06:04:17.839Z,100.00
2023-04-15T06:07:20.643Z,100.00
2023-04-15T06:10:23.580Z,100.00
2023-04-15T06:13:26.205Z,100.00
2023-04-15T06:16:29.080Z,100.00
2023-04-15T06:19:32.113Z,100.00
2023-04-15T06:22:34.926Z,100.00
2023-04-15T06:25:37.603Z,100.00
2023-04-15T06:28:40.788Z,100.00
2023-04-15T06:31:50.208Z,100.00
2023-04-15T06:34:53.119Z,100.00
2023-04-15T06:37:55.764Z,100.00
2023-04-15T06:40:58.679Z,100.00
2023-04-15T06:44:01.256Z,100.00
2023-04-15T06:47:04.177Z,100.00
2023-04-15T06:50:07.639Z,100.00
2023-04-15T06:53:10.551Z,100.00
2023-04-15T06:56:13.151Z,100.00
2023-04-15T06:59:16.107Z,100.00
2023-04-15T07:02:18.998Z,100.00
2023-04-15T07:05:22.076Z,100.00
2023-04-15T07:08:25.640Z,100.00
2023-04-15T07:11:28.401Z,100.00
2023-04-15T07:14:31.352Z,100.00
2023-04-15T07:17:34.397Z,100.00
2023-04-15T07:20:37.104Z,100.00
2023-04-15T07:23:40.298Z,100.00
2023-04-15T07:26:42.864Z,100.00
2023-04-15T07:29:45.733Z,100.00
2023-04-15T07:32:48.488Z,100.00
2023-04-15T07:35:51.819Z,100.00
2023-04-15T07:38:55.386Z,100.00
2023-04-15T07:41:59.108Z,100.00
2023-04-15T07:45:02.602Z,100.00
2023-04-15T07:48:06.728Z,100.00
2023-04-15T07:51:10.844Z,100.00
2023-04-15T07:54:14.082Z,100.00
2023-04-15T07:57:17.915Z,100.00
2023-04-15T08:00:20.810Z,100.00
2023-04-15T08:03:23.907Z,100.00
2023-04-15T08:06:27.511Z,100.00
2023-04-15T08:09:30.569Z,100.00
2023-04-15T08:12:33.407Z,100.00
2023-04-15T08:15:36.447Z,100.00
2023-04-15T08:18:39.436Z,100.00
2023-04-15T08:21:42.370Z,100.00
2023-04-15T08:24:45.154Z,100.00
2023-04-15T08:27:48.201Z,100.00
2023-04-15T08:30:51.242Z,100.00
2023-04-15T08:33:56.905Z,100.00
2023-04-15T08:37:00.443Z,100.00
2023-04-15T08:40:04.826Z,100.00
2023-04-15T08:43:10.168Z,100.00
2023-04-15T08:46:13.388Z,100.00
2023-04-15T08:49:18.094Z,100.00
2023-04-15T08:52:21.552Z,100.00
2023-04-15T08:55:26.692Z,100.00
2023-04-15T08:58:30.199Z,100.00
2023-04-15T09:01:33.304Z,97.41
2023-04-15T09:04:36.369Z,96.74
2023-04-15T09:07:39.470Z,91.39
2023-04-15T09:10:42.351Z,94.03
2023-04-15T09:13:45.713Z,93.02
2023-04-15T09:17:01.887Z,93.13
2023-04-15T09:20:15.299Z,92.16
2023-04-15T09:23:18.316Z,92.82
2023-04-15T09:26:31.067Z,91.99
2023-04-15T09:29:33.906Z,95.06
2023-04-15T09:32:49.654Z,94.85
2023-04-15T09:36:01.676Z,96.98
2023-04-15T09:39:04.451Z,98.30
2023-04-15T09:42:08.449Z,99.25
2023-04-15T09:45:12.140Z,98.41
2023-04-15T09:48:21.152Z,99.66
2023-04-15T09:51:35.095Z,98.60
2023-04-15T09:54:38.921Z,98.91
2023-04-15T09:57:41.870Z,100.00
2023-04-15T10:00:46.180Z,100.00
2023-04-15T10:03:49.692Z,100.00
2023-04-15T10:06:52.492Z,96.56
2023-04-15T10:09:56.606Z,89.54
2023-04-15T10:12:59.351Z,88.75
2023-04-15T10:16:15.944Z,91.32
2023-04-15T10:19:21.874Z,90.90
2023-04-15T10:22:25.981Z,92.46
2023-04-15T10:25:29.405Z,94.66
2023-04-15T10:28:32.457Z,94.28
2023-04-15T10:31:38.236Z,93.44
2023-04-15T10:34:42.152Z,95.65
2023-04-15T10:37:44.653Z,95.81
2023-04-15T10:40:47.688Z,98.68
2023-04-15T10:43:54.151Z,100.00
2023-04-15T10:46:58.914Z,100.00
2023-04-15T10:50:02.522Z,100.00
2023-04-15T10:53:05.768Z,100.00
2023-04-15T10:56:08.589Z,100.00
2023-04-15T10:59:11.738Z,100.00
2023-04-15T11:02:15.714Z,100.00
2023-04-15T11:05:20.059Z,100.00
2023-04-15T11:08:56.218Z,100.00
2023-04-15T11:12:05.600Z,100.00
2023-04-15T11:15:27.125Z,100.00
2023-04-15T11:18:31.303Z,100.00
2023-04-15T11:21:34.230Z,100.00
2023-04-15T11:24:37.824Z,100.00
2023-04-15T11:27:40.466Z,100.00
2023-04-15T11:30:43.984Z,100.00
2023-04-15T11:33:56.619Z,100.00
2023-04-15T11:36:59.551Z,100.00
2023-04-15T11:40:03.631Z,100.00
2023-04-15T11:43:09.118Z,98.90
2023-04-15T11:46:11.681Z,98.05
2023-04-15T11:49:34.985Z,97.05
2023-04-15T11:52:37.565Z,92.24
2023-04-15T11:55:46.282Z,89.99
2023-04-15T11:58:51.706Z,87.40
2023-04-15T12:01:55.107Z,86.30
2023-04-15T12:05:05.438Z,85.70
2023-04-15T12:08:08.064Z,84.90
2023-04-15T12:11:11.119Z,84.67
2023-04-15T12:14:26.813Z,86.05
2023-04-15T12:17:29.879Z,88.21
2023-04-15T12:20:52.517Z,91.27
2023-04-15T12:23:57.185Z,91.51
2023-04-15T12:27:07.311Z,91.24
2023-04-15T12:30:11.753Z,90.34
2023-04-15T12:33:14.751Z,91.07
2023-04-15T12:36:17.841Z,91.06
2023-04-15T12:39:25.375Z,90.82
2023-04-15T12:42:28.348Z,91.18
2023-04-15T12:45:30.938Z,89.85
2023-04-15T12:48:34.373Z,88.26
2023-04-15T12:51:37.711Z,86.06
2023-04-15T12:54:40.717Z,85.87
2023-04-15T12:57:43.604Z,87.22
2023-04-15T13:00:47.046Z,87.63
2023-04-15T13:03:51.233Z,88.67
2023-04-15T13:06:54.331Z,89.32
2023-04-15T13:09:57.094Z,90.19
2023-04-15T13:13:00.026Z,91.01
2023-04-15T13:16:03.012Z,91.78
2023-04-15T13:19:06.504Z,93.20
2023-04-15T13:22:09.441Z,93.94
2023-04-15T13:25:12.600Z,94.34
2023-04-15T13:28:15.142Z,94.29
2023-04-15T13:31:18.081Z,94.77
2023-04-15T13:34:21.428Z,95.28
2023-04-15T13:37:28.252Z,95.93
2023-04-15T13:40:31.606Z,96.69
2023-04-15T13:43:34.733Z,96.56
2023-04-15T13:46:39.606Z,97.27
2023-04-15T13:49:42.680Z,96.66
2023-04-15T13:52:45.392Z,96.37
2023-04-15T13:55:48.491Z,96.05
2023-04-15T13:58:52.976Z,95.54
2023-04-15T14:01:56.272Z,94.88
2023-04-15T14:04:59.281Z,93.55
2023-04-15T14:08:01.915Z,93.28
2023-04-15T14:11:04.787Z,92.62
2023-04-15T14:14:08.002Z,93.20
2023-04-15T14:17:11.120Z,94.34
2023-04-15T14:20:15.619Z,94.33
2023-04-15T14:23:20.131Z,93.76
2023-04-15T14:26:22.618Z,93.59
2023-04-15T14:29:26.389Z,95.13
2023-04-15T14:32:29.322Z,95.73
2023-04-15T14:35:32.548Z,96.09
2023-04-15T14:38:39.790Z,96.33
2023-04-15T14:41:42.659Z,97.40
2023-04-15T14:44:45.382Z,96.95
2023-04-15T14:47:48.649Z,97.43
2023-04-15T14:50:51.309Z,97.86
2023-04-15T14:53:54.261Z,97.86
2023-04-15T14:56:57.295Z,98.12
2023-04-15T15:00:00.351Z,98.59
2023-04-15T15:03:03.252Z,99.18
2023-04-15T15:06:06.301Z,100.00
2023-04-15T15:09:09.188Z,99.32
2023-04-15T15:12:12.041Z,98.83
2023-04-15T15:15:28.001Z,98.62
2023-04-15T15:18:31.597Z,98.99
2023-04-15T15:21:34.711Z,99.34
2023-04-15T15:24:37.492Z,99.13
2023-04-15T15:27:40.411Z,99.14
2023-04-15T15:30:43.263Z,99.04
2023-04-15T15:33:45.779Z,99.78
2023-04-15T15:36:48.708Z,99.36
2023-04-15T15:39:52.903Z,97.25
2023-04-15T15:42:55.750Z,98.04
2023-04-15T15:45:58.281Z,97.35
2023-04-15T15:49:03.496Z,97.08
2023-04-15T15:52:06.644Z,98.16
2023-04-15T15:55:09.495Z,98.82
2023-04-15T15:58:12.150Z,99.77
2023-04-15T16:01:15.044Z,99.28
2023-04-15T16:04:18.445Z,98.98
2023-04-15T16:07:21.286Z,98.63
2023-04-15T16:10:24.211Z,98.71
2023-04-15T16:13:26.758Z,99.07
2023-04-15T16:16:30.117Z,98.17
2023-04-15T16:19:32.759Z,98.03
2023-04-15T16:22:36.051Z,96.47
2023-04-15T16:25:38.694Z,96.26
2023-04-15T16:28:41.795Z,95.79
2023-04-15T16:31:44.501Z,96.35
2023-04-15T16:34:47.483Z,96.39
2023-04-15T16:37:50.449Z,96.76
2023-04-15T16:40:53.771Z,97.14
2023-04-15T16:43:57.548Z,97.71
2023-04-15T16:47:02.859Z,97.84
2023-04-15T16:50:05.991Z,97.93
2023-04-15T16:53:09.090Z,98.40
2023-04-15T16:56:11.653Z,98.52
2023-04-15T16:59:14.770Z,98.50
2023-04-15T17:02:17.764Z,99.03
2023-04-15T17:05:21.093Z,99.00
2023-04-15T17:08:23.880Z,99.03
2023-04-15T17:11:27.987Z,99.16
2023-04-15T17:14:31.557Z,99.28
2023-04-15T17:17:34.547Z,99.73
2023-04-15T17:20:38.698Z,100.00
2023-04-15T17:23:41.950Z,100.00
2023-04-15T17:26:44.639Z,100.00
2023-04-15T17:29:47.551Z,100.00
2023-04-15T17:32:51.680Z,100.00
2023-04-15T17:35:54.679Z,100.00
2023-04-15T17:38:57.926Z,100.00
2023-04-15T17:42:01.318Z,100.00
2023-04-15T17:45:04.074Z,100.00
2023-04-15T17:48:07.246Z,100.00
2023-04-15T17:51:10.091Z,100.00
2023-04-15T17:54:13.204Z,100.00
2023-04-15T17:57:16.674Z,100.00
2023-04-15T18:00:19.586Z,100.00
2023-04-15T18:03:24.830Z,100.00
2023-04-15T18:06:27.987Z,100.00
2023-04-15T18:09:31.252Z,100.00
2023-04-15T18:12:34.112Z,100.00
2023-04-15T18:15:37.258Z,100.00
2023-04-15T18:18:40.064Z,100.00
2023-04-15T18:21:43.016Z,100.00
2023-04-15T18:24:45.891Z,100.00
2023-04-15T18:27:49.182Z,100.00
2023-04-15T18:30:52.004Z,100.00
2023-04-15T18:33:55.208Z,100.00
2023-04-15T18:36:58.387Z,100.00
2023-04-15T18:40:01.623Z,100.00
2023-04-15T18:43:04.580Z,100.00
2023-04-15T18:46:11.777Z,100.00
2023-04-15T18:49:14.997Z,100.00
2023-04-15T18:52:18.181Z,100.00
2023-04-15T18:55:21.273Z,100.00
2023-04-15T18:58:24.391Z,100.00
2023-04-15T19:01:27.275Z,100.00
2023-04-15T19:04:30.509Z,100.00
2023-04-15T19:07:33.387Z,100.00
2023-04-15T19:10:36.611Z,100.00
2023-04-15T19:13:39.406Z,100.00
2023-04-15T19:16:42.330Z,100.00
2023-04-15T19:19:45.185Z,100.00
2023-04-15T19:22:48.577Z,100.00
2023-04-15T19:25:51.474Z,100.00
2023-04-15T19:28:56.480Z,100.00
2023-04-15T19:31:59.476Z,100.00
2023-04-15T19:35:03.214Z,100.00
2023-04-15T19:38:06.265Z,100.00
2023-04-15T19:41:10.983Z,100.00
2023-04-15T19:44:13.917Z,100.00
2023-04-15T19:47:17.267Z,100.00
2023-04-15T19:50:26.447Z,100.00
2023-04-15T19:53:29.571Z,100.00
2023-04-15T19:56:34.378Z,100.00
2023-04-15T19:59:38.015Z,100.00
2023-04-15T20:02:41.357Z,100.00
2023-04-15T20:05:45.124Z,100.00
2023-04-15T20:08:48.194Z,100.00
2023-04-15T20:12:47.848Z,100.00
2023-04-15T20:15:14.865Z,100.00
2023-04-15T20:18:18.056Z,100.00
2023-04-15T20:21:20.923Z,100.00
2023-04-15T20:24:24.603Z,100.00
2023-04-15T20:27:27.575Z,100.00
2023-04-15T20:30:30.797Z,100.00
2023-04-15T20:33:33.572Z,100.00
2023-04-15T20:36:36.563Z,100.00
2023-04-15T20:39:40.759Z,100.00
2023-04-15T20:42:43.810Z,100.00
2023-04-15T20:45:46.871Z,100.00
2023-04-15T20:48:50.109Z,100.00
2023-04-15T20:51:52.944Z,100.00
2023-04-15T20:54:56.197Z,100.00
2023-04-15T20:57:59.492Z,100.00
2023-04-15T21:01:02.534Z,100.00
2023-04-15T21:04:06.040Z,100.00
2023-04-15T21:07:10.030Z,100.00
2023-04-15T21:10:12.472Z,100.00
2023-04-15T21:13:17.690Z,100.00
2023-04-15T21:16:20.186Z,100.00
2023-04-15T21:19:22.958Z,100.00
2023-04-15T21:22:26.271Z,100.00
2023-04-15T21:25:29.264Z,100.00
2023-04-15T21:28:31.926Z,100.00
2023-04-15T21:31:34.911Z,100.00
2023-04-15T21:34:37.506Z,100.00
2023-04-15T21:37:40.362Z,100.00
2023-04-15T21:40:42.899Z,100.00
2023-04-15T21:43:45.782Z,100.00
2023-04-15T21:46:48.438Z,100.00
2023-04-15T21:49:51.534Z,100.00
2023-04-15T21:52:53.996Z,100.00
2023-04-15T21:55:56.873Z,100.00
2023-04-15T21:58:59.704Z,100.00
2023-04-15T22:02:02.633Z,100.00
2023-04-15T22:05:06.918Z,100.00
2023-04-15T22:08:09.467Z,100.00
2023-04-15T22:11:21.588Z,100.00
2023-04-15T22:14:24.125Z,100.00
2023-04-15T22:17:27.689Z,100.00
2023-04-15T22:20:30.422Z,100.00
2023-04-15T22:23:33.224Z,100.00
2023-04-15T22:26:35.842Z,100.00
2023-04-15T22:29:38.775Z,100.00
2023-04-15T22:32:41.447Z,100.00
2023-04-15T22:35:44.293Z,100.00
2023-04-15T22:38:47.305Z,100.00
2023-04-15T22:41:50.068Z,100.00
2023-04-15T22:44:52.656Z,100.00
2023-04-15T22:47:55.425Z,100.00
2023-04-15T22:50:58.116Z,100.00
2023-04-15T22:54:00.945Z,100.00
2023-04-15T22:57:03.545Z,100.00
2023-04-15T23:00:07.491Z,100.00
2023-04-15T23:03:10.415Z,100.00
2023-04-15T23:06:13.837Z,100.00
2023-04-15T23:09:16.302Z,100.00
2023-04-15T23:12:19.151Z,100.00
2023-04-15T23:15:21.760Z,100.00
2023-04-15T23:18:24.829Z,100.00
2023-04-15T23:21:28.489Z,100.00
2023-04-15T23:24:31.340Z,100.00
2023-04-15T23:27:34.523Z,100.00
2023-04-15T23:30:37.573Z,100.00
2023-04-15T23:33:40.314Z,100.00
2023-04-15T23:36:43.039Z,100.00
2023-04-15T23:39:45.768Z,100.00
2023-04-15T23:42:48.616Z,100.00
2023-04-15T23:45:51.199Z,100.00
2023-04-15T23:48:54.084Z,100.00
2023-04-15T23:51:57.532Z,100.00
2023-04-15T23:55:00.492Z,100.00
2023-04-15T23:58:02.979Z,100.00
